Terminal Aerodrome Forecast
Issued by NWS Boise, ID

Home | Current Version | Previous Version | Text Only | Print | Product List | Glossary On
Versions: 1 2 3 4 5 6 7 8 9 10 11 12 13 14 15 16 17 18 19 20 21 22 23 24 25 26 27 28 29 30 31 32 33 34 35 36 37 38 39 40 41 42 43 44 45 46 47 48
000
FTUS45 KBOI 212339
TAFBOI
TAF
KBOI 212339Z 2200/2224 VRB03KT 4SM HZ OVC120
     FM220300 13010KT P6SM VCSH SCT050 OVC080
     FM220700 13012KT P6SM -RA OVC050
     FM221200 12015G25KT 5SM -RASN BR OVC040
     FM222000 32017G27KT P6SM VCSH SCT040 BKN060=

USA.gov is the U.S. government's official web portal to all federal, state and local government web resources and services.